sensor_id;sensor_type;location;lat;lon;timestamp;P1;durP1;ratioP1;P2;durP2;ratioP2
60472;SDS011;46318;52.716;6.444;2023-05-07T00:00:51;23.67;;;21.23;;
60472;SDS011;46318;52.716;6.444;2023-05-07T00:03:17;24.77;;;22.27;;
60472;SDS011;46318;52.716;6.444;2023-05-07T00:05:44;23.75;;;21.40;;
60472;SDS011;46318;52.716;6.444;2023-05-07T00:08:10;28.40;;;23.00;;
60472;SDS011;46318;52.716;6.444;2023-05-07T00:10:36;25.20;;;22.70;;
60472;SDS011;46318;52.716;6.444;2023-05-07T00:13:02;24.83;;;22.27;;
60472;SDS011;46318;52.716;6.444;2023-05-07T00:15:27;24.73;;;21.95;;
60472;SDS011;46318;52.716;6.444;2023-05-07T00:17:53;24.33;;;21.83;;
60472;SDS011;46318;52.716;6.444;2023-05-07T00:20:20;23.73;;;21.25;;
60472;SDS011;46318;52.716;6.444;2023-05-07T00:22:46;23.92;;;21.42;;
60472;SDS011;46318;52.716;6.444;2023-05-07T00:25:12;23.02;;;20.52;;
60472;SDS011;46318;52.716;6.444;2023-05-07T00:27:38;24.65;;;22.05;;
60472;SDS011;46318;52.716;6.444;2023-05-07T00:30:04;24.77;;;22.15;;
60472;SDS011;46318;52.716;6.444;2023-05-07T00:32:31;23.73;;;21.23;;
60472;SDS011;46318;52.716;6.444;2023-05-07T00:34:57;26.75;;;21.65;;
60472;SDS011;46318;52.716;6.444;2023-05-07T00:37:23;24.10;;;20.15;;
60472;SDS011;46318;52.716;6.444;2023-05-07T00:39:48;21.42;;;19.10;;
60472;SDS011;46318;52.716;6.444;2023-05-07T00:42:14;22.67;;;18.73;;
60472;SDS011;46318;52.716;6.444;2023-05-07T00:44:41;22.52;;;19.98;;
60472;SDS011;46318;52.716;6.444;2023-05-07T00:47:07;20.23;;;18.13;;
60472;SDS011;46318;52.716;6.444;2023-05-07T00:49:40;19.75;;;17.70;;
60472;SDS011;46318;52.716;6.444;2023-05-07T00:52:09;21.00;;;18.05;;
60472;SDS011;46318;52.716;6.444;2023-05-07T00:54:40;18.20;;;16.10;;
60472;SDS011;46318;52.716;6.444;2023-05-07T00:57:07;18.98;;;16.98;;
60472;SDS011;46318;52.716;6.444;2023-05-07T00:59:38;19.80;;;16.30;;
60472;SDS011;46318;52.716;6.444;2023-05-07T01:02:05;19.45;;;17.23;;
60472;SDS011;46318;52.716;6.444;2023-05-07T01:04:31;18.30;;;15.98;;
60472;SDS011;46318;52.716;6.444;2023-05-07T01:06:57;18.17;;;16.30;;
60472;SDS011;46318;52.716;6.444;2023-05-07T01:09:24;19.20;;;16.15;;
60472;SDS011;46318;52.716;6.444;2023-05-07T01:11:51;17.70;;;15.88;;
60472;SDS011;46318;52.716;6.444;2023-05-07T01:14:18;17.95;;;15.93;;
60472;SDS011;46318;52.716;6.444;2023-05-07T01:16:46;18.15;;;16.25;;
60472;SDS011;46318;52.716;6.444;2023-05-07T01:19:13;18.25;;;16.35;;
60472;SDS011;46318;52.716;6.444;2023-05-07T01:21:43;18.77;;;16.77;;
60472;SDS011;46318;52.716;6.444;2023-05-07T01:24:12;19.63;;;16.63;;
60472;SDS011;46318;52.716;6.444;2023-05-07T01:26:39;19.92;;;17.02;;
60472;SDS011;46318;52.716;6.444;2023-05-07T01:29:05;21.45;;;17.23;;
60472;SDS011;46318;52.716;6.444;2023-05-07T01:31:32;18.85;;;16.88;;
60472;SDS011;46318;52.716;6.444;2023-05-07T01:33:59;18.52;;;16.55;;
60472;SDS011;46318;52.716;6.444;2023-05-07T01:36:27;19.08;;;16.95;;
60472;SDS011;46318;52.716;6.444;2023-05-07T01:38:55;18.60;;;15.88;;
60472;SDS011;46318;52.716;6.444;2023-05-07T01:41:22;18.92;;;16.80;;
60472;SDS011;46318;52.716;6.444;2023-05-07T01:43:49;19.73;;;17.60;;
60472;SDS011;46318;52.716;6.444;2023-05-07T01:46:17;22.50;;;19.23;;
60472;SDS011;46318;52.716;6.444;2023-05-07T01:48:44;21.60;;;19.30;;
60472;SDS011;46318;52.716;6.444;2023-05-07T01:51:11;21.00;;;18.90;;
60472;SDS011;46318;52.716;6.444;2023-05-07T01:53:40;22.25;;;19.70;;
60472;SDS011;46318;52.716;6.444;2023-05-07T01:56:08;23.20;;;19.77;;
60472;SDS011;46318;52.716;6.444;2023-05-07T01:58:34;22.58;;;20.13;;
60472;SDS011;46318;52.716;6.444;2023-05-07T02:00:59;23.90;;;21.33;;
60472;SDS011;46318;52.716;6.444;2023-05-07T02:03:25;23.77;;;21.25;;
60472;SDS011;46318;52.716;6.444;2023-05-07T02:05:51;24.00;;;20.85;;
60472;SDS011;46318;52.716;6.444;2023-05-07T02:08:17;25.00;;;21.88;;
60472;SDS011;46318;52.716;6.444;2023-05-07T02:10:43;24.80;;;21.85;;
60472;SDS011;46318;52.716;6.444;2023-05-07T02:13:08;25.13;;;22.40;;
60472;SDS011;46318;52.716;6.444;2023-05-07T02:15:34;24.63;;;21.98;;
60472;SDS011;46318;52.716;6.444;2023-05-07T02:18:04;25.58;;;22.85;;
60472;SDS011;46318;52.716;6.444;2023-05-07T02:20:32;23.80;;;21.40;;
60472;SDS011;46318;52.716;6.444;2023-05-07T02:22:58;26.02;;;22.67;;
60472;SDS011;46318;52.716;6.444;2023-05-07T02:25:25;24.65;;;21.98;;
60472;SDS011;46318;52.716;6.444;2023-05-07T02:27:51;24.50;;;21.70;;
60472;SDS011;46318;52.716;6.444;2023-05-07T02:30:17;25.35;;;22.60;;
60472;SDS011;46318;52.716;6.444;2023-05-07T02:32:43;26.05;;;23.20;;
60472;SDS011;46318;52.716;6.444;2023-05-07T02:35:09;25.02;;;22.42;;
60472;SDS011;46318;52.716;6.444;2023-05-07T02:37:35;24.65;;;22.05;;
60472;SDS011;46318;52.716;6.444;2023-05-07T02:40:01;26.38;;;22.85;;
60472;SDS011;46318;52.716;6.444;2023-05-07T02:42:28;25.20;;;22.50;;
60472;SDS011;46318;52.716;6.444;2023-05-07T02:44:54;25.63;;;23.02;;
60472;SDS011;46318;52.716;6.444;2023-05-07T02:47:20;26.33;;;23.52;;
60472;SDS011;46318;52.716;6.444;2023-05-07T02:49:46;28.30;;;24.15;;
60472;SDS011;46318;52.716;6.444;2023-05-07T02:52:11;26.88;;;23.85;;
60472;SDS011;46318;52.716;6.444;2023-05-07T02:54:37;27.08;;;24.20;;
60472;SDS011;46318;52.716;6.444;2023-05-07T02:57:03;26.38;;;23.67;;
60472;SDS011;46318;52.716;6.444;2023-05-07T02:59:29;29.13;;;24.10;;
60472;SDS011;46318;52.716;6.444;2023-05-07T03:01:55;28.70;;;23.95;;
60472;SDS011;46318;52.716;6.444;2023-05-07T03:04:21;27.13;;;24.25;;
60472;SDS011;46318;52.716;6.444;2023-05-07T03:06:46;27.58;;;23.77;;
60472;SDS011;46318;52.716;6.444;2023-05-07T03:09:12;28.85;;;25.77;;
60472;SDS011;46318;52.716;6.444;2023-05-07T03:11:38;28.80;;;24.90;;
60472;SDS011;46318;52.716;6.444;2023-05-07T03:14:04;28.25;;;25.13;;
60472;SDS011;46318;52.716;6.444;2023-05-07T03:16:30;29.30;;;25.70;;
60472;SDS011;46318;52.716;6.444;2023-05-07T03:18:56;29.30;;;24.85;;
60472;SDS011;46318;52.716;6.444;2023-05-07T03:21:22;29.38;;;25.10;;
60472;SDS011;46318;52.716;6.444;2023-05-07T03:23:47;30.45;;;26.63;;
60472;SDS011;46318;52.716;6.444;2023-05-07T03:26:13;30.42;;;26.38;;
60472;SDS011;46318;52.716;6.444;2023-05-07T03:28:39;29.38;;;25.77;;
60472;SDS011;46318;52.716;6.444;2023-05-07T03:31:05;30.13;;;26.13;;
60472;SDS011;46318;52.716;6.444;2023-05-07T03:33:34;31.15;;;26.20;;
60472;SDS011;46318;52.716;6.444;2023-05-07T03:36:00;33.53;;;28.20;;
60472;SDS011;46318;52.716;6.444;2023-05-07T03:38:26;29.70;;;26.33;;
60472;SDS011;46318;52.716;6.444;2023-05-07T03:40:52;35.25;;;27.70;;
60472;SDS011;46318;52.716;6.444;2023-05-07T03:43:18;34.63;;;28.25;;
60472;SDS011;46318;52.716;6.444;2023-05-07T03:45:43;32.75;;;28.67;;
60472;SDS011;46318;52.716;6.444;2023-05-07T03:48:09;32.67;;;27.92;;
60472;SDS011;46318;52.716;6.444;2023-05-07T03:50:35;34.33;;;28.58;;
60472;SDS011;46318;52.716;6.444;2023-05-07T03:53:01;33.67;;;28.15;;
60472;SDS011;46318;52.716;6.444;2023-05-07T03:55:27;32.50;;;28.95;;
60472;SDS011;46318;52.716;6.444;2023-05-07T03:57:53;35.35;;;29.83;;
60472;SDS011;46318;52.716;6.444;2023-05-07T04:00:19;35.72;;;29.83;;
60472;SDS011;46318;52.716;6.444;2023-05-07T04:02:48;35.53;;;29.38;;
60472;SDS011;46318;52.716;6.444;2023-05-07T04:05:14;36.63;;;30.10;;
60472;SDS011;46318;52.716;6.444;2023-05-07T04:07:40;36.63;;;31.10;;
60472;SDS011;46318;52.716;6.444;2023-05-07T04:10:06;36.53;;;30.67;;
60472;SDS011;46318;52.716;6.444;2023-05-07T04:12:32;39.00;;;32.38;;
60472;SDS011;46318;52.716;6.444;2023-05-07T04:14:58;40.25;;;33.03;;
60472;SDS011;46318;52.716;6.444;2023-05-07T04:17:24;38.35;;;29.98;;
60472;SDS011;46318;52.716;6.444;2023-05-07T04:19:50;38.95;;;31.48;;
60472;SDS011;46318;52.716;6.444;2023-05-07T04:22:16;40.40;;;33.08;;
60472;SDS011;46318;52.716;6.444;2023-05-07T04:24:42;39.75;;;32.83;;
60472;SDS011;46318;52.716;6.444;2023-05-07T04:27:08;41.03;;;32.75;;
60472;SDS011;46318;52.716;6.444;2023-05-07T04:29:34;42.33;;;33.58;;
60472;SDS011;46318;52.716;6.444;2023-05-07T04:32:00;41.53;;;32.90;;
60472;SDS011;46318;52.716;6.444;2023-05-07T04:34:26;40.63;;;33.13;;
60472;SDS011;46318;52.716;6.444;2023-05-07T04:36:52;42.33;;;33.65;;
60472;SDS011;46318;52.716;6.444;2023-05-07T04:39:18;41.30;;;32.95;;
60472;SDS011;46318;52.716;6.444;2023-05-07T04:41:43;40.15;;;33.58;;
60472;SDS011;46318;52.716;6.444;2023-05-07T04:44:09;38.58;;;32.78;;
60472;SDS011;46318;52.716;6.444;2023-05-07T04:46:35;42.97;;;34.15;;
60472;SDS011;46318;52.716;6.444;2023-05-07T04:49:01;42.55;;;34.63;;
60472;SDS011;46318;52.716;6.444;2023-05-07T04:51:28;38.53;;;33.50;;
60472;SDS011;46318;52.716;6.444;2023-05-07T04:53:54;44.47;;;33.60;;
60472;SDS011;46318;52.716;6.444;2023-05-07T04:56:20;42.90;;;33.80;;
60472;SDS011;46318;52.716;6.444;2023-05-07T04:58:45;42.15;;;34.65;;
60472;SDS011;46318;52.716;6.444;2023-05-07T05:01:11;38.90;;;32.42;;
60472;SDS011;46318;52.716;6.444;2023-05-07T05:03:37;42.47;;;33.90;;
60472;SDS011;46318;52.716;6.444;2023-05-07T05:06:04;40.40;;;33.22;;
60472;SDS011;46318;52.716;6.444;2023-05-07T05:08:30;41.45;;;33.63;;
60472;SDS011;46318;52.716;6.444;2023-05-07T05:10:56;39.10;;;32.55;;
60472;SDS011;46318;52.716;6.444;2023-05-07T05:13:22;37.10;;;32.08;;
60472;SDS011;46318;52.716;6.444;2023-05-07T05:15:48;42.17;;;34.05;;
60472;SDS011;46318;52.716;6.444;2023-05-07T05:18:14;39.38;;;33.60;;
60472;SDS011;46318;52.716;6.444;2023-05-07T05:20:40;36.80;;;32.00;;
60472;SDS011;46318;52.716;6.444;2023-05-07T05:23:07;43.65;;;33.00;;
60472;SDS011;46318;52.716;6.444;2023-05-07T05:25:33;38.95;;;31.30;;
60472;SDS011;46318;52.716;6.444;2023-05-07T05:27:59;41.33;;;32.97;;
60472;SDS011;46318;52.716;6.444;2023-05-07T05:30:24;37.95;;;31.73;;
60472;SDS011;46318;52.716;6.444;2023-05-07T05:32:50;40.88;;;32.72;;
60472;SDS011;46318;52.716;6.444;2023-05-07T05:35:16;38.67;;;31.60;;
60472;SDS011;46318;52.716;6.444;2023-05-07T05:37:42;36.25;;;31.00;;
60472;SDS011;46318;52.716;6.444;2023-05-07T05:40:08;38.53;;;30.38;;
60472;SDS011;46318;52.716;6.444;2023-05-07T05:42:34;36.65;;;30.77;;
60472;SDS011;46318;52.716;6.444;2023-05-07T05:45:00;35.60;;;30.17;;
60472;SDS011;46318;52.716;6.444;2023-05-07T05:47:26;39.22;;;30.88;;
60472;SDS011;46318;52.716;6.444;2023-05-07T05:49:51;33.88;;;29.58;;
60472;SDS011;46318;52.716;6.444;2023-05-07T05:52:17;35.55;;;31.27;;
60472;SDS011;46318;52.716;6.444;2023-05-07T05:54:43;35.00;;;30.15;;
60472;SDS011;46318;52.716;6.444;2023-05-07T05:57:09;35.83;;;29.55;;
60472;SDS011;46318;52.716;6.444;2023-05-07T05:59:35;38.03;;;29.05;;
60472;SDS011;46318;52.716;6.444;2023-05-07T06:02:01;35.78;;;29.35;;
60472;SDS011;46318;52.716;6.444;2023-05-07T06:04:27;35.03;;;29.40;;
60472;SDS011;46318;52.716;6.444;2023-05-07T06:06:53;36.85;;;29.05;;
60472;SDS011;46318;52.716;6.444;2023-05-07T06:09:19;34.90;;;30.27;;
60472;SDS011;46318;52.716;6.444;2023-05-07T06:11:45;36.20;;;31.45;;
60472;SDS011;46318;52.716;6.444;2023-05-07T06:14:11;36.03;;;29.98;;
60472;SDS011;46318;52.716;6.444;2023-05-07T06:16:37;35.47;;;30.20;;
60472;SDS011;46318;52.716;6.444;2023-05-07T06:19:03;35.60;;;30.08;;
60472;SDS011;46318;52.716;6.444;2023-05-07T06:21:29;35.13;;;29.70;;
60472;SDS011;46318;52.716;6.444;2023-05-07T06:23:56;33.88;;;29.15;;
60472;SDS011;46318;52.716;6.444;2023-05-07T06:26:22;35.17;;;30.42;;
60472;SDS011;46318;52.716;6.444;2023-05-07T06:28:47;35.28;;;30.02;;
60472;SDS011;46318;52.716;6.444;2023-05-07T06:31:17;36.10;;;29.98;;
60472;SDS011;46318;52.716;6.444;2023-05-07T06:33:47;35.33;;;29.75;;
60472;SDS011;46318;52.716;6.444;2023-05-07T06:36:14;34.40;;;29.55;;
60472;SDS011;46318;52.716;6.444;2023-05-07T06:38:40;35.63;;;29.15;;
60472;SDS011;46318;52.716;6.444;2023-05-07T06:41:06;35.85;;;29.15;;
60472;SDS011;46318;52.716;6.444;2023-05-07T06:43:32;33.53;;;29.70;;
60472;SDS011;46318;52.716;6.444;2023-05-07T06:45:58;38.00;;;30.63;;
60472;SDS011;46318;52.716;6.444;2023-05-07T06:48:24;37.50;;;31.27;;
60472;SDS011;46318;52.716;6.444;2023-05-07T06:50:50;35.22;;;30.38;;
60472;SDS011;46318;52.716;6.444;2023-05-07T06:53:16;39.45;;;31.40;;
60472;SDS011;46318;52.716;6.444;2023-05-07T06:55:42;39.08;;;31.17;;
60472;SDS011;46318;52.716;6.444;2023-05-07T06:58:08;35.80;;;31.98;;
60472;SDS011;46318;52.716;6.444;2023-05-07T07:00:33;38.38;;;32.42;;
60472;SDS011;46318;52.716;6.444;2023-05-07T07:03:00;36.13;;;31.08;;
60472;SDS011;46318;52.716;6.444;2023-05-07T07:05:25;34.25;;;30.55;;
60472;SDS011;46318;52.716;6.444;2023-05-07T07:07:51;37.55;;;31.55;;
60472;SDS011;46318;52.716;6.444;2023-05-07T07:10:23;35.50;;;30.70;;
60472;SDS011;46318;52.716;6.444;2023-05-07T07:12:49;36.97;;;31.48;;
60472;SDS011;46318;52.716;6.444;2023-05-07T07:15:17;37.00;;;31.52;;
60472;SDS011;46318;52.716;6.444;2023-05-07T07:17:45;36.90;;;30.52;;
60472;SDS011;46318;52.716;6.444;2023-05-07T07:20:11;37.10;;;31.95;;
60472;SDS011;46318;52.716;6.444;2023-05-07T07:22:38;36.67;;;30.88;;
60472;SDS011;46318;52.716;6.444;2023-05-07T07:25:04;38.95;;;31.92;;
60472;SDS011;46318;52.716;6.444;2023-05-07T07:27:30;38.25;;;32.08;;
60472;SDS011;46318;52.716;6.444;2023-05-07T07:29:56;37.00;;;31.52;;
60472;SDS011;46318;52.716;6.444;2023-05-07T07:32:24;37.55;;;31.50;;
60472;SDS011;46318;52.716;6.444;2023-05-07T07:34:51;37.05;;;32.38;;
60472;SDS011;46318;52.716;6.444;2023-05-07T07:37:17;36.70;;;31.45;;
60472;SDS011;46318;52.716;6.444;2023-05-07T07:39:43;36.05;;;31.40;;
60472;SDS011;46318;52.716;6.444;2023-05-07T07:42:09;37.10;;;31.83;;
60472;SDS011;46318;52.716;6.444;2023-05-07T07:44:34;36.70;;;31.15;;
60472;SDS011;46318;52.716;6.444;2023-05-07T07:47:00;37.67;;;31.85;;
60472;SDS011;46318;52.716;6.444;2023-05-07T07:49:26;36.33;;;31.63;;
60472;SDS011;46318;52.716;6.444;2023-05-07T07:51:52;37.15;;;32.00;;
60472;SDS011;46318;52.716;6.444;2023-05-07T07:54:18;36.28;;;31.23;;
60472;SDS011;46318;52.716;6.444;2023-05-07T07:56:44;37.90;;;31.73;;
60472;SDS011;46318;52.716;6.444;2023-05-07T07:59:10;37.53;;;31.80;;
60472;SDS011;46318;52.716;6.444;2023-05-07T08:01:35;36.63;;;31.73;;
60472;SDS011;46318;52.716;6.444;2023-05-07T08:04:01;37.53;;;31.65;;
60472;SDS011;46318;52.716;6.444;2023-05-07T08:06:28;38.28;;;32.50;;
60472;SDS011;46318;52.716;6.444;2023-05-07T08:08:54;37.60;;;31.92;;
60472;SDS011;46318;52.716;6.444;2023-05-07T08:11:20;39.75;;;32.50;;
60472;SDS011;46318;52.716;6.444;2023-05-07T08:13:47;37.63;;;32.88;;
60472;SDS011;46318;52.716;6.444;2023-05-07T08:16:13;37.85;;;32.00;;
60472;SDS011;46318;52.716;6.444;2023-05-07T08:18:39;37.92;;;31.67;;
60472;SDS011;46318;52.716;6.444;2023-05-07T08:21:05;37.17;;;32.90;;
60472;SDS011;46318;52.716;6.444;2023-05-07T08:23:31;39.65;;;32.33;;
60472;SDS011;46318;52.716;6.444;2023-05-07T08:25:59;35.80;;;31.83;;
60472;SDS011;46318;52.716;6.444;2023-05-07T08:28:25;39.17;;;33.28;;
60472;SDS011;46318;52.716;6.444;2023-05-07T08:30:51;41.22;;;32.50;;
60472;SDS011;46318;52.716;6.444;2023-05-07T08:33:17;37.58;;;33.22;;
60472;SDS011;46318;52.716;6.444;2023-05-07T08:35:43;39.90;;;31.98;;
60472;SDS011;46318;52.716;6.444;2023-05-07T08:38:09;35.92;;;30.98;;
60472;SDS011;46318;52.716;6.444;2023-05-07T08:40:38;36.75;;;32.58;;
60472;SDS011;46318;52.716;6.444;2023-05-07T08:43:06;35.47;;;31.42;;
60472;SDS011;46318;52.716;6.444;2023-05-07T08:45:32;36.47;;;30.73;;
60472;SDS011;46318;52.716;6.444;2023-05-07T08:48:00;36.20;;;31.02;;
60472;SDS011;46318;52.716;6.444;2023-05-07T08:50:28;34.20;;;29.95;;
60472;SDS011;46318;52.716;6.444;2023-05-07T08:52:55;34.35;;;30.17;;
60472;SDS011;46318;52.716;6.444;2023-05-07T08:55:22;36.25;;;31.00;;
60472;SDS011;46318;52.716;6.444;2023-05-07T08:57:49;35.80;;;31.60;;
60472;SDS011;46318;52.716;6.444;2023-05-07T09:00:17;36.35;;;31.27;;
60472;SDS011;46318;52.716;6.444;2023-05-07T09:02:43;35.05;;;30.80;;
60472;SDS011;46318;52.716;6.444;2023-05-07T09:05:09;35.72;;;29.83;;
60472;SDS011;46318;52.716;6.444;2023-05-07T09:07:35;34.17;;;29.92;;
60472;SDS011;46318;52.716;6.444;2023-05-07T09:10:02;37.45;;;30.80;;
60472;SDS011;46318;52.716;6.444;2023-05-07T09:12:29;35.17;;;30.40;;
60472;SDS011;46318;52.716;6.444;2023-05-07T09:14:55;35.60;;;30.58;;
60472;SDS011;46318;52.716;6.444;2023-05-07T09:17:21;35.65;;;29.88;;
60472;SDS011;46318;52.716;6.444;2023-05-07T09:19:47;34.13;;;29.52;;
60472;SDS011;46318;52.716;6.444;2023-05-07T09:22:13;35.65;;;30.48;;
60472;SDS011;46318;52.716;6.444;2023-05-07T09:24:39;34.53;;;30.77;;
60472;SDS011;46318;52.716;6.444;2023-05-07T09:27:05;33.20;;;29.48;;
60472;SDS011;46318;52.716;6.444;2023-05-07T09:29:33;33.53;;;30.05;;
60472;SDS011;46318;52.716;6.444;2023-05-07T09:32:02;34.30;;;30.15;;
60472;SDS011;46318;52.716;6.444;2023-05-07T09:34:33;32.75;;;28.88;;
60472;SDS011;46318;52.716;6.444;2023-05-07T09:37:03;33.53;;;30.02;;
60472;SDS011;46318;52.716;6.444;2023-05-07T09:39:43;33.10;;;29.35;;
60472;SDS011;46318;52.716;6.444;2023-05-07T09:42:10;32.30;;;27.95;;
60472;SDS011;46318;52.716;6.444;2023-05-07T09:44:37;32.88;;;29.30;;
60472;SDS011;46318;52.716;6.444;2023-05-07T09:47:04;33.08;;;28.42;;
60472;SDS011;46318;52.716;6.444;2023-05-07T09:49:33;33.92;;;29.52;;
60472;SDS011;46318;52.716;6.444;2023-05-07T09:52:02;32.33;;;28.73;;
60472;SDS011;46318;52.716;6.444;2023-05-07T09:54:35;30.02;;;26.83;;
60472;SDS011;46318;52.716;6.444;2023-05-07T09:57:03;30.75;;;27.45;;
60472;SDS011;46318;52.716;6.444;2023-05-07T09:59:33;31.33;;;28.08;;
60472;SDS011;46318;52.716;6.444;2023-05-07T10:02:02;34.85;;;28.42;;
60472;SDS011;46318;52.716;6.444;2023-05-07T10:04:29;31.63;;;28.33;;
60472;SDS011;46318;52.716;6.444;2023-05-07T10:06:57;29.60;;;26.40;;
60472;SDS011;46318;52.716;6.444;2023-05-07T10:09:24;29.98;;;26.70;;
60472;SDS011;46318;52.716;6.444;2023-05-07T10:11:51;28.30;;;25.35;;
60472;SDS011;46318;52.716;6.444;2023-05-07T10:14:19;28.92;;;26.02;;
60472;SDS011;46318;52.716;6.444;2023-05-07T10:16:46;29.85;;;26.65;;
60472;SDS011;46318;52.716;6.444;2023-05-07T10:19:13;30.67;;;27.48;;
60472;SDS011;46318;52.716;6.444;2023-05-07T10:21:44;30.65;;;27.42;;
60472;SDS011;46318;52.716;6.444;2023-05-07T10:24:26;30.67;;;26.42;;
60472;SDS011;46318;52.716;6.444;2023-05-07T10:26:56;31.13;;;27.42;;
60472;SDS011;46318;52.716;6.444;2023-05-07T10:34:50;27.20;;;24.45;;
60472;SDS011;46318;52.716;6.444;2023-05-07T10:37:20;27.95;;;25.13;;
60472;SDS011;46318;52.716;6.444;2023-05-07T10:39:47;27.63;;;24.73;;
60472;SDS011;46318;52.716;6.444;2023-05-07T10:42:14;29.75;;;26.65;;
60472;SDS011;46318;52.716;6.444;2023-05-07T10:44:40;29.17;;;25.83;;
60472;SDS011;46318;52.716;6.444;2023-05-07T10:47:07;27.75;;;24.98;;
60472;SDS011;46318;52.716;6.444;2023-05-07T10:50:20;29.85;;;26.75;;
60472;SDS011;46318;52.716;6.444;2023-05-07T10:52:30;26.67;;;23.88;;
60472;SDS011;46318;52.716;6.444;2023-05-07T10:55:18;26.65;;;23.98;;
60472;SDS011;46318;52.716;6.444;2023-05-07T10:57:42;26.58;;;23.75;;
60472;SDS011;46318;52.716;6.444;2023-05-07T11:05:29;26.17;;;23.58;;
60472;SDS011;46318;52.716;6.444;2023-05-07T11:07:57;24.05;;;21.65;;
60472;SDS011;46318;52.716;6.444;2023-05-07T11:16:20;24.00;;;21.75;;
60472;SDS011;46318;52.716;6.444;2023-05-07T11:18:54;23.02;;;20.70;;
60472;SDS011;46318;52.716;6.444;2023-05-07T11:24:04;23.55;;;21.25;;
60472;SDS011;46318;52.716;6.444;2023-05-07T11:26:48;23.88;;;21.58;;
60472;SDS011;46318;52.716;6.444;2023-05-07T11:29:18;23.92;;;21.58;;
60472;SDS011;46318;52.716;6.444;2023-05-07T11:31:50;23.13;;;20.75;;
60472;SDS011;46318;52.716;6.444;2023-05-07T11:34:21;22.20;;;20.13;;
60472;SDS011;46318;52.716;6.444;2023-05-07T11:36:48;23.83;;;21.48;;
60472;SDS011;46318;52.716;6.444;2023-05-07T11:39:28;23.55;;;21.00;;
60472;SDS011;46318;52.716;6.444;2023-05-07T11:41:55;23.33;;;21.00;;
60472;SDS011;46318;52.716;6.444;2023-05-07T11:44:21;23.75;;;21.35;;
60472;SDS011;46318;52.716;6.444;2023-05-07T11:46:47;22.65;;;20.35;;
60472;SDS011;46318;52.716;6.444;2023-05-07T11:49:14;22.05;;;19.95;;
60472;SDS011;46318;52.716;6.444;2023-05-07T11:51:40;21.58;;;19.45;;
60472;SDS011;46318;52.716;6.444;2023-05-07T11:54:07;21.55;;;19.35;;
60472;SDS011;46318;52.716;6.444;2023-05-07T11:56:36;22.25;;;20.10;;
60472;SDS011;46318;52.716;6.444;2023-05-07T11:59:02;22.02;;;20.00;;
60472;SDS011;46318;52.716;6.444;2023-05-07T12:01:28;22.40;;;20.13;;
60472;SDS011;46318;52.716;6.444;2023-05-07T12:03:54;22.58;;;20.48;;
60472;SDS011;46318;52.716;6.444;2023-05-07T12:06:20;21.70;;;19.50;;
60472;SDS011;46318;52.716;6.444;2023-05-07T12:08:46;22.23;;;20.13;;
60472;SDS011;46318;52.716;6.444;2023-05-07T12:11:16;22.58;;;20.20;;
60472;SDS011;46318;52.716;6.444;2023-05-07T12:13:50;21.42;;;19.10;;
60472;SDS011;46318;52.716;6.444;2023-05-07T12:16:17;22.08;;;19.90;;
60472;SDS011;46318;52.716;6.444;2023-05-07T12:18:44;20.25;;;18.25;;
60472;SDS011;46318;52.716;6.444;2023-05-07T12:21:10;22.27;;;20.15;;
60472;SDS011;46318;52.716;6.444;2023-05-07T12:23:37;23.63;;;21.23;;
60472;SDS011;46318;52.716;6.444;2023-05-07T12:26:03;22.02;;;19.90;;
60472;SDS011;46318;52.716;6.444;2023-05-07T12:28:30;22.02;;;19.73;;
60472;SDS011;46318;52.716;6.444;2023-05-07T12:31:02;22.75;;;20.48;;
60472;SDS011;46318;52.716;6.444;2023-05-07T12:33:28;21.92;;;19.83;;
60472;SDS011;46318;52.716;6.444;2023-05-07T12:35:56;23.20;;;20.90;;
60472;SDS011;46318;52.716;6.444;2023-05-07T12:38:21;22.27;;;20.15;;
60472;SDS011;46318;52.716;6.444;2023-05-07T12:40:48;20.42;;;18.52;;
60472;SDS011;46318;52.716;6.444;2023-05-07T12:45:50;21.35;;;19.25;;
60472;SDS011;46318;52.716;6.444;2023-05-07T12:48:19;22.65;;;20.45;;
60472;SDS011;46318;52.716;6.444;2023-05-07T12:50:52;23.70;;;21.40;;
60472;SDS011;46318;52.716;6.444;2023-05-07T12:53:20;21.50;;;19.58;;
60472;SDS011;46318;52.716;6.444;2023-05-07T12:55:49;22.48;;;20.38;;
60472;SDS011;46318;52.716;6.444;2023-05-07T12:58:18;21.63;;;19.63;;
60472;SDS011;46318;52.716;6.444;2023-05-07T13:00:54;22.20;;;20.05;;
60472;SDS011;46318;52.716;6.444;2023-05-07T13:03:33;20.90;;;18.90;;
60472;SDS011;46318;52.716;6.444;2023-05-07T13:06:03;20.73;;;18.67;;
60472;SDS011;46318;52.716;6.444;2023-05-07T13:08:36;21.70;;;19.80;;
60472;SDS011;46318;52.716;6.444;2023-05-07T13:11:11;23.17;;;20.50;;
60472;SDS011;46318;52.716;6.444;2023-05-07T13:13:38;21.85;;;19.85;;
60472;SDS011;46318;52.716;6.444;2023-05-07T13:16:06;20.52;;;18.65;;
60472;SDS011;46318;52.716;6.444;2023-05-07T13:18:35;22.77;;;20.50;;
60472;SDS011;46318;52.716;6.444;2023-05-07T13:21:03;21.83;;;19.83;;
60472;SDS011;46318;52.716;6.444;2023-05-07T13:23:29;23.50;;;21.17;;
60472;SDS011;46318;52.716;6.444;2023-05-07T13:25:55;22.88;;;20.77;;
60472;SDS011;46318;52.716;6.444;2023-05-07T13:28:22;23.15;;;20.95;;
60472;SDS011;46318;52.716;6.444;2023-05-07T13:30:49;21.30;;;19.20;;
60472;SDS011;46318;52.716;6.444;2023-05-07T13:33:16;19.95;;;18.00;;
60472;SDS011;46318;52.716;6.444;2023-05-07T13:35:42;19.58;;;17.77;;
60472;SDS011;46318;52.716;6.444;2023-05-07T13:38:08;20.63;;;18.73;;
60472;SDS011;46318;52.716;6.444;2023-05-07T13:40:34;22.70;;;20.63;;
60472;SDS011;46318;52.716;6.444;2023-05-07T13:43:00;21.55;;;19.42;;
60472;SDS011;46318;52.716;6.444;2023-05-07T13:45:29;20.52;;;18.60;;
60472;SDS011;46318;52.716;6.444;2023-05-07T13:47:55;18.90;;;17.20;;
60472;SDS011;46318;52.716;6.444;2023-05-07T13:50:22;19.83;;;17.88;;
60472;SDS011;46318;52.716;6.444;2023-05-07T13:52:48;19.33;;;17.33;;
60472;SDS011;46318;52.716;6.444;2023-05-07T13:55:17;19.63;;;17.77;;
60472;SDS011;46318;52.716;6.444;2023-05-07T13:57:43;20.63;;;18.65;;
60472;SDS011;46318;52.716;6.444;2023-05-07T14:00:09;18.80;;;17.10;;
60472;SDS011;46318;52.716;6.444;2023-05-07T14:02:36;21.02;;;19.02;;
60472;SDS011;46318;52.716;6.444;2023-05-07T14:05:02;20.08;;;18.05;;
60472;SDS011;46318;52.716;6.444;2023-05-07T14:07:29;20.88;;;18.88;;
60472;SDS011;46318;52.716;6.444;2023-05-07T14:09:54;19.65;;;17.73;;
60472;SDS011;46318;52.716;6.444;2023-05-07T14:12:21;20.05;;;18.13;;
60472;SDS011;46318;52.716;6.444;2023-05-07T14:14:47;19.83;;;18.02;;
60472;SDS011;46318;52.716;6.444;2023-05-07T14:17:15;20.80;;;18.90;;
60472;SDS011;46318;52.716;6.444;2023-05-07T14:19:45;20.63;;;18.63;;
60472;SDS011;46318;52.716;6.444;2023-05-07T14:22:10;20.95;;;18.98;;
60472;SDS011;46318;52.716;6.444;2023-05-07T14:24:38;20.95;;;19.05;;
60472;SDS011;46318;52.716;6.444;2023-05-07T14:27:04;21.63;;;19.52;;
60472;SDS011;46318;52.716;6.444;2023-05-07T14:29:30;20.30;;;18.50;;
60472;SDS011;46318;52.716;6.444;2023-05-07T14:31:56;19.05;;;17.10;;
60472;SDS011;46318;52.716;6.444;2023-05-07T14:34:22;18.88;;;17.20;;
60472;SDS011;46318;52.716;6.444;2023-05-07T14:36:48;17.98;;;16.27;;
60472;SDS011;46318;52.716;6.444;2023-05-07T14:39:14;21.92;;;19.83;;
60472;SDS011;46318;52.716;6.444;2023-05-07T14:41:40;21.90;;;19.80;;